Time;durP1;ratioP1;P1;durP2;ratioP2;P2;SDS_P1;SDS_P2;PMS_P1;PMS_P2;Temp;Humidity;BMP_temperature;BMP_pressure;BME280_temperature;BME280_humidity;BME280_pressure;Samples;Min_cycle;Max_cycle;Signal;HPM_P1;HPM_P2
2023/03/26 00:01:06;;;;;;;;;;;;;;;8.61;100.00;98964.28;5114387;28;1958;-55
2023/03/26 00:03:33;;;;;;;;;;;;;;;8.49;100.00;98973.84;5114492;28;847;-55
2023/03/26 00:06:07;;;;;;;;;;;;;;;8.31;100.00;98965.72;5114295;28;917;-56
2023/03/26 00:08:35;;;;;;;;;;;;;;;8.24;100.00;98968.53;5114522;28;926;-56
2023/03/26 00:11:02;;;;;;;;;;;;;;;8.27;100.00;98970.47;5114327;28;1302;-56
2023/03/26 00:13:30;;;;;;;;;;;;;;;8.33;100.00;98979.09;5114449;28;831;-56
2023/03/26 00:15:57;;;;;;;;;;;;;;;8.36;100.00;98975.50;5114203;28;866;-57
2023/03/26 00:18:29;;;;;;;;;;;;;;;8.39;100.00;98981.00;5114216;28;894;-58
2023/03/26 00:20:56;;;;;;;;;;;;;;;8.48;100.00;98977.00;5113950;28;2000;-58
2023/03/26 00:23:24;;;;;;;;;;;;;;;8.67;100.00;98973.66;5114223;28;874;-58
2023/03/26 00:25:50;;;;;;;;;;;;;;;8.90;100.00;98984.06;5113820;28;816;-58
2023/03/26 00:28:20;;;;;;;;;;;;;;;9.08;100.00;98975.56;5113848;28;858;-57
2023/03/26 00:30:48;;;;;;;;;;;;;;;9.33;100.00;98988.28;5113852;28;941;-58
2023/03/26 00:33:16;;;;;;;;;;;;;;;9.55;100.00;98981.25;5113801;28;914;-58
2023/03/26 00:35:45;;;;;;;;;;;;;;;9.71;100.00;98988.94;5113702;28;883;-56
2023/03/26 00:38:16;;;;;;;;;;;;;;;9.88;100.00;98978.81;5113661;28;792;-56
2023/03/26 00:40:46;;;;;;;;;;;;;;;10.02;100.00;98986.88;5113569;28;1893;-56
2023/03/26 00:43:20;;;;;;;;;;;;;;;10.12;100.00;98995.41;5113940;28;847;-56
2023/03/26 00:45:47;;;;;;;;;;;;;;;10.16;100.00;98988.63;5113574;28;855;-56
2023/03/26 00:48:14;;;;;;;;;;;;;;;10.15;100.00;98986.28;5113423;28;844;-56
2023/03/26 00:50:41;;;;;;;;;;;;;;;10.10;100.00;98984.78;5113228;28;804;-56
2023/03/26 00:53:10;;;;;;;;;;;;;;;10.11;100.00;98986.31;5113369;28;865;-56
2023/03/26 00:55:37;;;;;;;;;;;;;;;10.17;100.00;98964.56;5113078;28;895;-55
2023/03/26 00:58:08;;;;;;;;;;;;;;;10.16;100.00;98951.97;5113299;28;866;-55
2023/03/26 01:00:38;;;;;;;;;;;;;;;10.17;100.00;98948.75;5113304;28;1957;-55
2023/03/26 01:03:05;;;;;;;;;;;;;;;10.17;100.00;98936.94;5113186;28;826;-55
2023/03/26 01:05:34;;;;;;;;;;;;;;;10.08;100.00;98945.75;5113106;28;902;-55
2023/03/26 01:08:21;;;;;;;;;;;;;;;10.00;100.00;98950.59;5113020;28;858;-55
2023/03/26 01:10:52;;;;;;;;;;;;;;;9.93;100.00;98952.72;5112640;28;2128;-55
2023/03/26 01:13:23;;;;;;;;;;;;;;;9.86;100.00;98953.63;5113696;28;815;-55
2023/03/26 01:15:51;;;;;;;;;;;;;;;9.84;100.00;98939.44;5112894;28;807;-55
2023/03/26 01:18:20;;;;;;;;;;;;;;;9.77;100.00;98962.44;5113125;28;918;-55
2023/03/26 01:20:48;;;;;;;;;;;;;;;9.75;100.00;98956.53;5112786;28;1977;-55
2023/03/26 01:23:21;;;;;;;;;;;;;;;9.77;100.00;98967.94;5113076;28;901;-55
2023/03/26 01:25:52;;;;;;;;;;;;;;;9.71;100.00;98964.09;5112810;28;792;-54
2023/03/26 01:28:19;;;;;;;;;;;;;;;9.64;100.00;98961.41;5112661;28;905;-55
2023/03/26 01:31:00;;;;;;;;;;;;;;;9.63;100.00;98965.38;5112651;28;921;-55
2023/03/26 01:33:35;;;;;;;;;;;;;;;9.63;100.00;98959.09;5112768;28;858;-54
2023/03/26 01:36:01;;;;;;;;;;;;;;;9.56;100.00;98960.75;5112567;28;875;-54
2023/03/26 01:38:58;;;;;;;;;;;;;;;9.54;100.00;98963.16;5112472;28;816;-55
2023/03/26 01:41:54;;;;;;;;;;;;;;;9.68;100.00;98970.44;5091317;28;2242;-54
2023/03/26 01:44:21;;;;;;;;;;;;;;;9.79;100.00;98965.56;5091282;28;1389;-55
2023/03/26 01:46:49;;;;;;;;;;;;;;;9.82;100.00;98959.19;5112387;28;887;-55
2023/03/26 01:49:17;;;;;;;;;;;;;;;9.82;100.00;98961.16;5112322;28;886;-55
2023/03/26 01:51:44;;;;;;;;;;;;;;;9.81;100.00;98963.16;5112272;28;795;-55
2023/03/26 01:54:13;;;;;;;;;;;;;;;9.77;100.00;98961.63;5112189;28;886;-55
2023/03/26 01:56:52;;;;;;;;;;;;;;;9.74;100.00;98960.50;5112408;28;902;-55
2023/03/26 01:59:31;;;;;;;;;;;;;;;9.70;100.00;98957.00;5112227;28;842;-55
2023/03/26 02:02:03;;;;;;;;;;;;;;;9.66;100.00;98955.50;5111718;28;1953;-55
2023/03/26 02:04:32;;;;;;;;;;;;;;;9.69;100.00;98962.94;5112123;28;820;-55
2023/03/26 02:07:05;;;;;;;;;;;;;;;9.70;100.00;98953.47;5112122;28;791;-55
2023/03/26 02:09:36;;;;;;;;;;;;;;;9.70;100.00;98957.00;5112076;28;1362;-56
2023/03/26 02:12:03;;;;;;;;;;;;;;;9.68;100.00;98955.84;5112015;28;866;-55
2023/03/26 02:14:30;;;;;;;;;;;;;;;9.67;100.00;98951.56;5112009;28;882;-55
2023/03/26 02:16:59;;;;;;;;;;;;;;;9.60;100.00;98950.47;5111952;28;855;-56
2023/03/26 02:19:26;;;;;;;;;;;;;;;9.60;100.00;98944.13;5111876;28;836;-55
2023/03/26 02:21:58;;;;;;;;;;;;;;;9.61;100.00;98948.47;5093559;28;1906;-55
2023/03/26 02:24:25;;;;;;;;;;;;;;;9.68;100.00;98951.13;5111708;28;867;-55
2023/03/26 02:26:52;;;;;;;;;;;;;;;9.79;100.00;98943.47;5111945;28;913;-55
2023/03/26 02:29:19;;;;;;;;;;;;;;;9.86;100.00;98948.09;5111872;28;816;-55
2023/03/26 02:31:49;;;;;;;;;;;;;;;9.92;100.00;98945.63;5111833;28;831;-55
2023/03/26 02:34:16;;;;;;;;;;;;;;;9.95;100.00;98945.56;5111886;28;823;-55
2023/03/26 02:36:42;;;;;;;;;;;;;;;10.00;100.00;98941.56;5111939;28;855;-56
2023/03/26 02:39:10;;;;;;;;;;;;;;;10.02;100.00;98947.44;5093472;28;1274;-55
2023/03/26 02:41:37;;;;;;;;;;;;;;;10.06;100.00;98953.69;5111692;28;1958;-57
2023/03/26 02:44:04;;;;;;;;;;;;;;;10.15;100.00;98961.44;5111707;28;890;-57
2023/03/26 02:46:32;;;;;;;;;;;;;;;10.25;100.00;98959.69;5111617;28;894;-57
2023/03/26 02:48:59;;;;;;;;;;;;;;;10.31;100.00;98961.59;5111786;28;811;-57
2023/03/26 02:51:26;;;;;;;;;;;;;;;10.37;100.00;98959.91;5111607;28;820;-55
2023/03/26 02:53:53;;;;;;;;;;;;;;;10.43;100.00;98965.69;5111468;28;855;-55
2023/03/26 02:56:20;;;;;;;;;;;;;;;10.44;100.00;98959.00;5111902;28;836;-55
2023/03/26 02:58:47;;;;;;;;;;;;;;;10.40;100.00;98959.03;5111579;28;826;-55
2023/03/26 03:01:16;;;;;;;;;;;;;;;10.49;100.00;98960.50;5111498;28;1889;-55
2023/03/26 03:03:46;;;;;;;;;;;;;;;10.44;100.00;98967.28;5111588;28;874;-55
2023/03/26 03:06:12;;;;;;;;;;;;;;;10.39;100.00;98974.06;5111446;28;823;-55
2023/03/26 03:08:40;;;;;;;;;;;;;;;10.35;100.00;98961.53;5111615;28;874;-55
2023/03/26 03:11:09;;;;;;;;;;;;;;;10.39;100.00;98965.78;5111231;28;1212;-55
2023/03/26 03:13:35;;;;;;;;;;;;;;;10.45;100.00;98957.78;5113060;28;972;-55
2023/03/26 03:16:02;;;;;;;;;;;;;;;10.54;100.00;98957.22;5115431;28;882;-55
2023/03/26 03:18:29;;;;;;;;;;;;;;;10.61;100.00;98954.34;5115448;28;862;-55
2023/03/26 03:20:55;;;;;;;;;;;;;;;10.65;100.00;98957.03;5115095;28;2000;-55
2023/03/26 03:23:22;;;;;;;;;;;;;;;10.63;100.00;98947.19;5115082;28;913;-55
2023/03/26 03:25:51;;;;;;;;;;;;;;;10.61;100.00;98959.88;5115117;28;815;-55
2023/03/26 03:28:18;;;;;;;;;;;;;;;10.59;100.00;98951.22;5115104;28;827;-55
2023/03/26 03:30:45;;;;;;;;;;;;;;;10.60;100.00;98958.28;5096637;28;926;-55
2023/03/26 03:33:12;;;;;;;;;;;;;;;10.61;100.00;98957.88;5114997;28;827;-55
2023/03/26 03:35:40;;;;;;;;;;;;;;;10.64;100.00;98964.53;5114915;28;878;-55
2023/03/26 03:38:07;;;;;;;;;;;;;;;10.59;100.00;98971.34;5114829;28;879;-55
2023/03/26 03:40:34;;;;;;;;;;;;;;;10.54;100.00;98971.84;5114757;28;1878;-56
2023/03/26 03:43:00;;;;;;;;;;;;;;;10.57;100.00;98970.97;5096491;28;1214;-55
2023/03/26 03:45:27;;;;;;;;;;;;;;;10.66;100.00;98969.66;5114713;28;843;-55
2023/03/26 03:47:54;;;;;;;;;;;;;;;10.73;100.00;98977.81;5114695;28;862;-55
2023/03/26 03:50:20;;;;;;;;;;;;;;;10.78;100.00;98997.44;5096305;28;750;-56
2023/03/26 03:52:47;;;;;;;;;;;;;;;10.83;100.00;99010.78;5114388;28;855;-55
2023/03/26 03:55:14;;;;;;;;;;;;;;;10.92;100.00;99015.75;5114597;28;823;-55
2023/03/26 03:57:41;;;;;;;;;;;;;;;10.95;100.00;99014.91;5114463;28;914;-56
2023/03/26 04:00:07;;;;;;;;;;;;;;;10.97;100.00;99012.50;5114432;28;1902;-56
2023/03/26 04:02:34;;;;;;;;;;;;;;;11.03;100.00;99032.13;5114341;28;942;-56
2023/03/26 04:07:46;;;;;;;;;;;;;;;10.44;100.00;99047.41;5114267;28;909;-54
2023/03/26 04:10:14;;;;;;;;;;;;;;;9.89;100.00;99045.84;5114028;28;1291;-62
2023/03/26 04:12:41;;;;;;;;;;;;;;;9.67;100.00;99048.91;5114233;28;863;-59
2023/03/26 04:15:14;;;;;;;;;;;;;;;9.61;100.00;99048.56;5114148;28;839;-60
2023/03/26 04:17:41;;;;;;;;;;;;;;;9.61;100.00;99039.50;5095817;28;1190;-61
2023/03/26 04:20:13;;;;;;;;;;;;;;;9.59;100.00;99039.91;5113933;28;1974;-61
2023/03/26 04:22:42;;;;;;;;;;;;;;;9.62;100.00;99041.06;5114422;28;807;-59
2023/03/26 04:25:09;;;;;;;;;;;;;;;9.64;100.00;99024.09;5113745;28;882;-60
2023/03/26 04:27:37;;;;;;;;;;;;;;;9.66;100.00;99030.75;5114179;28;820;-61
2023/03/26 04:30:05;;;;;;;;;;;;;;;9.69;100.00;99041.00;5114223;28;796;-67
2023/03/26 04:32:34;;;;;;;;;;;;;;;9.69;100.00;99029.94;5113816;28;811;-62
2023/03/26 04:35:02;;;;;;;;;;;;;;;9.71;100.00;99035.06;5095546;28;1317;-63
2023/03/26 04:37:33;;;;;;;;;;;;;;;9.70;100.00;99039.78;5113695;28;883;-61
2023/03/26 04:40:05;;;;;;;;;;;;;;;9.67;100.00;99057.19;5113860;28;933;-60
2023/03/26 04:42:32;;;;;;;;;;;;;;;9.62;100.00;99063.13;5095199;28;1626;-60
2023/03/26 04:45:01;;;;;;;;;;;;;;;9.63;100.00;99073.00;5113636;28;851;-60
2023/03/26 04:47:28;;;;;;;;;;;;;;;9.65;100.00;99083.63;5113452;28;866;-59
2023/03/26 04:49:55;;;;;;;;;;;;;;;9.66;100.00;99085.19;5113401;28;803;-59
2023/03/26 04:52:22;;;;;;;;;;;;;;;9.67;100.00;99106.06;5113570;28;819;-59
2023/03/26 04:54:49;;;;;;;;;;;;;;;9.67;100.00;99090.28;5113406;28;851;-59
2023/03/26 04:57:41;;;;;;;;;;;;;;;9.66;100.00;99079.66;5113297;28;857;-59
2023/03/26 05:00:18;;;;;;;;;;;;;;;9.67;100.00;99084.78;5101419;28;1942;-59
2023/03/26 05:02:49;;;;;;;;;;;;;;;9.70;100.00;99106.00;5113307;28;898;-58
2023/03/26 05:05:16;;;;;;;;;;;;;;;9.74;100.00;99111.50;5113046;28;820;-58
2023/03/26 05:07:43;;;;;;;;;;;;;;;9.76;100.00;99089.78;5113303;28;795;-58
2023/03/26 05:10:11;;;;;;;;;;;;;;;9.75;100.00;99071.63;5107908;28;1230;-58
2023/03/26 05:12:38;;;;;;;;;;;;;;;9.71;100.00;99041.34;5092587;28;816;-58
2023/03/26 05:15:05;;;;;;;;;;;;;;;9.70;100.00;99025.22;5092600;28;831;-58
2023/03/26 05:17:33;;;;;;;;;;;;;;;9.72;100.00;99031.09;5092500;28;895;-59
2023/03/26 05:20:00;;;;;;;;;;;;;;;9.78;100.00;99054.28;5092444;28;831;-59
2023/03/26 05:22:27;;;;;;;;;;;;;;;9.80;100.00;99110.63;5092382;28;1973;-59
2023/03/26 05:24:53;;;;;;;;;;;;;;;9.82;100.00;99110.19;5074181;28;1199;-58
2023/03/26 05:27:20;;;;;;;;;;;;;;;9.89;100.00;99099.06;5092427;28;804;-58
2023/03/26 05:29:46;;;;;;;;;;;;;;;9.94;100.00;99106.91;5092375;28;824;-58
2023/03/26 05:32:13;;;;;;;;;;;;;;;10.03;100.00;99098.09;5092300;28;879;-58
2023/03/26 05:34:40;;;;;;;;;;;;;;;10.10;100.00;99108.25;5092209;28;910;-58
2023/03/26 05:37:08;;;;;;;;;;;;;;;10.13;100.00;99104.66;5091351;28;836;-58
2023/03/26 05:40:03;;;;;;;;;;;;;;;10.12;100.00;99100.34;5092341;28;828;-58
2023/03/26 05:42:29;;;;;;;;;;;;;;;10.04;100.00;99096.88;5092350;28;1943;-58
2023/03/26 05:44:55;;;;;;;;;;;;;;;10.00;100.00;99080.38;5092266;28;1098;-58
2023/03/26 05:47:22;;;;;;;;;;;;;;;9.98;100.00;99081.97;5092165;28;815;-58
2023/03/26 05:50:04;;;;;;;;;;;;;;;10.03;100.00;99089.81;5092369;28;796;-58
2023/03/26 05:52:31;;;;;;;;;;;;;;;10.16;100.00;99085.28;5091904;28;867;-58
2023/03/26 05:54:57;;;;;;;;;;;;;;;10.25;100.00;99090.28;5091893;28;832;-58
2023/03/26 05:57:27;;;;;;;;;;;;;;;10.34;100.00;99087.78;5073710;28;1318;-58
2023/03/26 05:59:55;;;;;;;;;;;;;;;10.42;100.00;99078.19;5091858;28;871;-58
2023/03/26 06:02:22;;;;;;;;;;;;;;;10.42;100.00;99088.47;5091652;28;1882;-58
2023/03/26 06:04:49;;;;;;;;;;;;;;;10.51;100.00;99088.72;5073633;28;1382;-58
2023/03/26 06:07:16;;;;;;;;;;;;;;;10.64;100.00;99086.13;5091707;28;831;-58
2023/03/26 06:09:47;;;;;;;;;;;;;;;10.66;100.00;99091.25;5093008;28;991;-58
2023/03/26 06:12:14;;;;;;;;;;;;;;;10.70;100.00;99089.97;5092004;28;922;-58
2023/03/26 06:14:47;;;;;;;;;;;;;;;10.80;100.00;99100.09;5091907;28;911;-58
2023/03/26 06:17:14;;;;;;;;;;;;;;;10.89;100.00;99098.75;5091587;28;903;-58
2023/03/26 06:19:40;;;;;;;;;;;;;;;10.95;100.00;99097.09;5091493;28;864;-58
2023/03/26 06:22:06;;;;;;;;;;;;;;;10.98;100.00;99101.75;5091490;28;1906;-58
2023/03/26 06:25:06;;;;;;;;;;;;;;;11.23;100.00;99102.06;5091466;28;872;-58
2023/03/26 06:27:33;;;;;;;;;;;;;;;12.11;100.00;99096.38;5091671;28;816;-58
2023/03/26 06:29:59;;;;;;;;;;;;;;;12.71;100.00;99091.38;5091802;28;804;-58
2023/03/26 06:32:49;;;;;;;;;;;;;;;13.81;100.00;99100.75;5091394;28;879;-58
2023/03/26 06:35:15;;;;;;;;;;;;;;;14.61;100.00;99101.91;5091436;28;824;-58
2023/03/26 06:37:42;;;;;;;;;;;;;;;15.36;100.00;99107.69;5091455;28;812;-57
2023/03/26 06:40:09;;;;;;;;;;;;;;;16.20;100.00;99104.22;5091351;28;811;-57
2023/03/26 06:42:36;;;;;;;;;;;;;;;16.31;100.00;99098.22;5091411;28;858;-57
2023/03/26 06:45:03;;;;;;;;;;;;;;;15.98;100.00;99103.47;5091626;28;886;-58
2023/03/26 06:47:29;;;;;;;;;;;;;;;15.96;100.00;99094.81;5073040;28;1334;-58
2023/03/26 06:49:56;;;;;;;;;;;;;;;16.31;100.00;99096.22;5094959;28;819;-58
2023/03/26 06:52:23;;;;;;;;;;;;;;;15.66;100.00;99106.22;5095415;28;808;-58
2023/03/26 06:54:49;;;;;;;;;;;;;;;14.95;100.00;99103.94;5095274;28;956;-58
2023/03/26 06:57:16;;;;;;;;;;;;;;;15.07;100.00;99105.91;5095351;28;859;-58
2023/03/26 06:59:43;;;;;;;;;;;;;;;14.38;100.00;99095.44;5095203;28;914;-57
2023/03/26 07:02:10;;;;;;;;;;;;;;;13.52;100.00;99097.22;5095056;28;1951;-57
2023/03/26 07:04:36;;;;;;;;;;;;;;;12.94;100.00;99104.28;5095306;28;859;-57
2023/03/26 07:07:03;;;;;;;;;;;;;;;12.81;100.00;99089.56;5095081;28;808;-57
2023/03/26 07:09:30;;;;;;;;;;;;;;;13.17;100.00;99088.63;5095368;28;1020;-57
2023/03/26 07:11:57;;;;;;;;;;;;;;;14.53;100.00;99083.84;5112989;28;1208;-57
2023/03/26 07:14:24;;;;;;;;;;;;;;;16.04;100.00;99088.50;5115334;28;858;-56
2023/03/26 07:16:50;;;;;;;;;;;;;;;17.08;100.00;99081.53;5115283;28;898;-56
2023/03/26 07:19:17;;;;;;;;;;;;;;;17.64;100.00;99081.47;5115017;28;808;-56
2023/03/26 07:24:29;;;;;;;;;;;;;;;18.64;100.00;99070.41;5115420;28;1007;-56
2023/03/26 07:27:14;;;;;;;;;;;;;;;18.00;100.00;99061.06;5115232;28;886;-56
2023/03/26 07:29:44;;;;;;;;;;;;;;;17.67;100.00;99066.59;5113716;28;1430;-56
2023/03/26 07:32:23;;;;;;;;;;;;;;;17.72;100.00;99063.91;5114948;28;906;-56
2023/03/26 07:35:09;;;;;;;;;;;;;;;17.96;100.00;99063.25;5115436;28;812;-57
2023/03/26 07:37:51;;;;;;;;;;;;;;;18.53;100.00;99062.53;5114969;28;934;-56
2023/03/26 07:40:38;;;;;;;;;;;;;;;18.26;100.00;99069.06;5115080;28;1949;-57
2023/03/26 07:43:22;;;;;;;;;;;;;;;17.93;98.06;99070.56;5100333;28;1071;-57
2023/03/26 07:45:49;;;;;;;;;;;;;;;17.79;92.25;99067.63;5114725;28;840;-57
2023/03/26 07:48:30;;;;;;;;;;;;;;;18.40;100.00;99067.59;5114614;28;866;-57
2023/03/26 07:50:58;;;;;;;;;;;;;;;19.03;96.74;99073.28;5114911;28;906;-57
2023/03/26 07:53:25;;;;;;;;;;;;;;;19.22;98.98;99077.47;5114681;28;854;-57
2023/03/26 07:55:52;;;;;;;;;;;;;;;19.25;92.42;99084.19;5114533;28;840;-57
2023/03/26 07:58:37;;;;;;;;;;;;;;;19.02;95.14;99078.13;5114617;28;908;-57
2023/03/26 08:01:24;;;;;;;;;;;;;;;18.62;83.34;99076.47;5113692;28;1945;-58
2023/03/26 08:04:14;;;;;;;;;;;;;;;17.57;90.89;99088.16;5073270;28;1242;-58
2023/03/26 08:06:47;;;;;;;;;;;;;;;17.93;89.82;99073.38;5076686;28;1127;-58
2023/03/26 08:09:29;;;;;;;;;;;;;;;18.41;90.54;99075.50;5114587;28;1095;-58
2023/03/26 08:11:59;;;;;;;;;;;;;;;18.82;91.34;99067.53;5114369;28;1116;-58
2023/03/26 08:14:55;;;;;;;;;;;;;;;18.97;89.25;99059.94;5114215;28;863;-58
2023/03/26 08:17:41;;;;;;;;;;;;;;;18.46;81.14;99074.88;5114041;28;871;-58
2023/03/26 08:20:24;;;;;;;;;;;;;;;17.61;90.55;99085.22;5114123;28;812;-58
2023/03/26 08:23:04;;;;;;;;;;;;;;;16.67;90.16;99082.84;5114113;28;824;-58
2023/03/26 08:28:43;;;;;;;;;;;;;;;15.99;90.43;99096.69;5113839;28;1112;-58
2023/03/26 08:31:14;;;;;;;;;;;;;;;16.09;84.48;99095.50;5114306;28;830;-58
2023/03/26 08:33:40;;;;;;;;;;;;;;;16.80;89.00;99099.47;5112644;28;1297;-57
2023/03/26 08:36:07;;;;;;;;;;;;;;;16.86;85.27;99094.84;5113816;28;835;-57
2023/03/26 08:38:34;;;;;;;;;;;;;;;17.28;88.71;99089.44;5113773;28;894;-58
2023/03/26 08:41:15;;;;;;;;;;;;;;;17.03;82.89;99081.38;5113693;28;1947;-58
2023/03/26 08:43:51;;;;;;;;;;;;;;;17.44;89.31;99076.41;5113681;28;855;-58
2023/03/26 08:46:36;;;;;;;;;;;;;;;17.68;89.28;99070.91;5113467;28;847;-57
2023/03/26 08:49:24;;;;;;;;;;;;;;;17.84;84.40;99081.78;5113714;28;883;-57
2023/03/26 08:51:53;;;;;;;;;;;;;;;18.12;91.58;99084.50;5072744;28;1326;-57
2023/03/26 08:54:27;;;;;;;;;;;;;;;17.39;90.11;99090.97;5113490;28;875;-57
2023/03/26 08:57:12;;;;;;;;;;;;;;;17.35;84.53;99088.34;5113437;28;866;-57
2023/03/26 08:59:41;;;;;;;;;;;;;;;17.02;82.93;99097.34;5113206;28;934;-57
2023/03/26 09:05:14;;;;;;;;;;;;;;;15.86;77.01;99102.34;5113115;28;1422;-57
2023/03/26 09:07:41;;;;;;;;;;;;;;;15.51;78.40;99094.81;5113106;28;831;-57
2023/03/26 09:10:26;;;;;;;;;;;;;;;15.74;76.57;99097.63;5110734;28;1159;-58
2023/03/26 09:13:14;;;;;;;;;;;;;;;16.58;75.51;99086.38;5092913;28;835;-58
2023/03/26 09:15:59;;;;;;;;;;;;;;;17.30;73.60;99081.38;5092450;28;874;-58
2023/03/26 09:18:32;;;;;;;;;;;;;;;17.85;70.93;99074.19;5092837;28;899;-57
2023/03/26 09:21:11;;;;;;;;;;;;;;;18.00;70.58;99086.25;5092482;28;1961;-58
2023/03/26 09:24:16;;;;;;;;;;;;;;;18.05;68.55;99077.22;5092445;28;816;-57
2023/03/26 09:26:50;;;;;;;;;;;;;;;17.75;59.48;99088.16;4990812;28;1288;-58
2023/03/26 09:29:50;;;;;;;;;;;;;;;17.05;62.37;99095.66;5010623;28;832;-57
2023/03/26 09:32:35;;;;;;;;;;;;;;;16.86;62.71;99103.22;4993846;28;956;-57
2023/03/26 09:35:30;;;;;;;;;;;;;;;16.76;58.46;99071.69;5010396;28;888;-59
2023/03/26 09:37:59;;;;;;;;;;;;;;;16.59;63.32;99093.50;5010238;28;1170;-57
2023/03/26 10:09:16;;;;;;;;;;;;;;;17.33;56.82;99082.47;6007627;22;1566;-70
2023/03/26 10:11:52;;;;;;;;;;;;;;;17.91;52.93;99097.47;5091712;28;929;-70
2023/03/26 10:14:23;;;;;;;;;;;;;;;17.97;51.95;99111.59;5091796;28;866;-68
2023/03/26 10:16:53;;;;;;;;;;;;;;;18.25;54.27;99101.84;5091695;28;843;-68
2023/03/26 10:19:35;;;;;;;;;;;;;;;18.16;54.09;99110.28;5091707;28;819;-66
2023/03/26 10:22:09;;;;;;;;;;;;;;;18.20;54.27;99108.09;5091605;28;1973;-69
2023/03/26 10:24:44;;;;;;;;;;;;;;;18.80;52.53;99102.84;5091071;28;948;-70
2023/03/26 10:27:14;;;;;;;;;;;;;;;18.95;52.34;99090.47;5091907;28;862;-67
2023/03/26 10:29:50;;;;;;;;;;;;;;;19.09;55.71;99097.34;5073428;28;1422;-69
2023/03/26 10:32:22;;;;;;;;;;;;;;;19.18;52.29;99096.50;5091837;28;831;-70
2023/03/26 10:35:15;;;;;;;;;;;;;;;19.44;53.58;99093.97;5091519;28;866;-69
2023/03/26 10:37:47;;;;;;;;;;;;;;;19.34;51.64;99079.25;5089010;28;1046;-69
2023/03/26 10:40:27;;;;;;;;;;;;;;;19.58;49.06;99070.00;5091486;28;811;-69
2023/03/26 10:43:09;;;;;;;;;;;;;;;19.33;50.72;99068.53;5091345;28;905;-68
2023/03/26 10:45:53;;;;;;;;;;;;;;;19.38;49.76;99057.44;5091463;28;831;-68
2023/03/26 10:48:22;;;;;;;;;;;;;;;19.16;48.44;99054.19;5091395;28;859;-68
2023/03/26 10:50:52;;;;;;;;;;;;;;;18.83;49.74;99066.28;5091355;28;815;-70
2023/03/26 10:53:18;;;;;;;;;;;;;;;18.65;49.17;99071.94;5091339;28;919;-70
2023/03/26 10:55:49;;;;;;;;;;;;;;;18.53;48.76;99062.53;5091270;28;817;-72
2023/03/26 10:58:24;;;;;;;;;;;;;;;18.90;50.20;99067.94;5091259;28;891;-75
2023/03/26 11:00:53;;;;;;;;;;;;;;;19.20;48.82;99065.97;5091305;28;1881;-72
2023/03/26 11:03:29;;;;;;;;;;;;;;;18.64;47.25;99064.81;5091265;28;823;-73
2023/03/26 11:06:12;;;;;;;;;;;;;;;18.28;50.99;99072.91;5091151;28;671;-70
2023/03/26 11:08:39;;;;;;;;;;;;;;;18.66;49.33;99062.31;5091392;28;930;-74
2023/03/26 11:11:12;;;;;;;;;;;;;;;18.75;50.17;99060.25;5108910;28;1286;-71
2023/03/26 11:13:57;;;;;;;;;;;;;;;18.48;49.60;99071.59;5111518;28;823;-71
2023/03/26 11:16:46;;;;;;;;;;;;;;;18.67;49.26;99066.66;5111490;28;843;-71
2023/03/26 11:19:19;;;;;;;;;;;;;;;18.12;48.24;99057.31;5111133;28;1550;-77
2023/03/26 11:21:54;;;;;;;;;;;;;;;18.00;48.13;99060.31;5111777;28;1902;-71
2023/03/26 11:24:39;;;;;;;;;;;;;;;18.20;48.28;99049.34;5111444;28;815;-72
2023/03/26 11:27:24;;;;;;;;;;;;;;;18.34;47.51;99040.25;5111539;28;819;-77
2023/03/26 11:30:00;;;;;;;;;;;;;;;18.21;46.17;99062.09;5111488;28;909;-70
2023/03/26 11:32:36;;;;;;;;;;;;;;;18.57;46.07;99058.31;5111448;28;799;-70
2023/03/26 11:35:31;;;;;;;;;;;;;;;19.14;45.08;99062.31;5111894;28;870;-73
2023/03/26 11:38:01;;;;;;;;;;;;;;;19.45;40.05;99053.47;5084724;28;1304;-70
2023/03/26 11:40:40;;;;;;;;;;;;;;;18.44;41.23;99043.78;5096716;28;1901;-72
2023/03/26 11:43:13;;;;;;;;;;;;;;;17.80;43.76;99056.00;5115674;28;796;-71
2023/03/26 11:45:44;;;;;;;;;;;;;;;17.35;43.00;99050.03;5096561;28;1440;-72
2023/03/26 11:48:18;;;;;;;;;;;;;;;17.23;44.96;99053.75;5114826;28;902;-72
2023/03/26 11:50:46;;;;;;;;;;;;;;;18.54;44.72;99048.09;5096380;28;1324;-72
2023/03/26 11:53:18;;;;;;;;;;;;;;;19.82;43.13;99033.47;5114789;28;854;-73
2023/03/26 11:55:50;;;;;;;;;;;;;;;20.37;39.49;99034.81;5114816;28;1084;-71
2023/03/26 11:58:27;;;;;;;;;;;;;;;20.37;39.79;99034.81;5114684;28;863;-72
2023/03/26 12:00:54;;;;;;;;;;;;;;;20.32;38.06;99038.34;5114541;28;1959;-75
2023/03/26 12:03:22;;;;;;;;;;;;;;;20.08;39.62;99032.88;5114628;28;807;-72
2023/03/26 12:05:50;;;;;;;;;;;;;;;19.08;40.68;99028.59;5114567;28;862;-71
2023/03/26 12:08:18;;;;;;;;;;;;;;;19.02;39.84;99032.53;5114483;28;913;-73
2023/03/26 12:11:00;;;;;;;;;;;;;;;18.46;39.34;99032.91;5114362;28;1469;-73
2023/03/26 12:13:35;;;;;;;;;;;;;;;18.70;39.28;99035.69;5114362;28;854;-72
2023/03/26 12:16:20;;;;;;;;;;;;;;;18.91;39.30;99033.09;5114639;28;824;-71
2023/03/26 12:18:57;;;;;;;;;;;;;;;19.19;40.68;99033.63;5114358;28;831;-72
2023/03/26 12:21:23;;;;;;;;;;;;;;;19.09;39.29;99032.16;5114033;28;1977;-73
2023/03/26 12:23:57;;;;;;;;;;;;;;;18.49;39.90;99028.38;5096277;28;1289;-73
2023/03/26 12:26:40;;;;;;;;;;;;;;;18.04;40.78;99030.16;5114197;28;850;-74
2023/03/26 12:29:09;;;;;;;;;;;;;;;18.55;39.94;99021.63;5096074;28;795;-72
2023/03/26 12:31:55;;;;;;;;;;;;;;;19.42;39.42;99014.44;5114065;28;818;-74
2023/03/26 12:34:39;;;;;;;;;;;;;;;19.72;39.21;99016.00;5113778;28;1028;-75
2023/03/26 12:37:06;;;;;;;;;;;;;;;20.78;39.48;99004.00;5114686;28;815;-74
2023/03/26 12:39:35;;;;;;;;;;;;;;;21.89;35.58;98993.59;5113857;28;800;-74
2023/03/26 12:42:02;;;;;;;;;;;;;;;21.71;34.60;99000.38;5114274;28;1878;-72
2023/03/26 12:44:30;;;;;;;;;;;;;;;21.68;34.33;98999.34;5114250;28;839;-72
2023/03/26 12:47:12;;;;;;;;;;;;;;;21.09;33.83;98999.75;5113342;28;814;-74
2023/03/26 12:49:39;;;;;;;;;;;;;;;20.96;35.85;98995.28;5095221;28;1337;-71
2023/03/26 12:52:41;;;;;;;;;;;;;;;20.83;33.75;98997.69;5114125;28;886;-72
2023/03/26 12:55:23;;;;;;;;;;;;;;;20.92;34.36;98994.72;5014340;28;1487;-74
2023/03/26 12:58:07;;;;;;;;;;;;;;;21.16;34.46;98990.88;5031156;28;945;-75
2023/03/26 13:00:45;;;;;;;;;;;;;;;20.72;34.43;98997.56;5030829;28;1917;-74
2023/03/26 13:03:48;;;;;;;;;;;;;;;20.49;35.25;98990.88;5013976;28;1161;-73
2023/03/26 13:06:23;;;;;;;;;;;;;;;20.21;33.93;98988.44;4988922;28;1347;-74
2023/03/26 13:09:00;;;;;;;;;;;;;;;20.82;34.24;98982.09;5031666;28;1059;-71
2023/03/26 13:11:38;;;;;;;;;;;;;;;20.08;34.28;98983.16;5010850;28;832;-71
2023/03/26 13:14:32;;;;;;;;;;;;;;;19.94;35.12;98975.56;5010818;28;816;-73
2023/03/26 13:17:12;;;;;;;;;;;;;;;19.91;33.38;98973.75;5010747;28;969;-70
2023/03/26 13:19:51;;;;;;;;;;;;;;;19.76;33.13;98971.72;5010618;28;935;-72
2023/03/26 13:22:20;;;;;;;;;;;;;;;19.82;33.35;98979.44;5010649;28;1914;-73
2023/03/26 13:25:07;;;;;;;;;;;;;;;19.68;33.52;98964.94;5010631;28;903;-72
2023/03/26 13:27:48;;;;;;;;;;;;;;;20.01;31.85;98975.13;5010397;28;1171;-71
2023/03/26 13:30:21;;;;;;;;;;;;;;;20.38;31.57;98974.66;5091282;28;1029;-73
2023/03/26 13:33:01;;;;;;;;;;;;;;;20.93;31.31;98967.41;5074259;28;867;-73
2023/03/26 13:35:32;;;;;;;;;;;;;;;20.94;31.51;98972.53;5092852;28;776;-72
2023/03/26 13:38:04;;;;;;;;;;;;;;;20.50;31.09;98969.94;5092312;28;879;-73
2023/03/26 13:40:36;;;;;;;;;;;;;;;20.66;31.00;98968.66;5092255;28;1878;-74
2023/03/26 13:43:23;;;;;;;;;;;;;;;21.50;29.69;98965.94;5092177;28;996;-73
2023/03/26 13:45:54;;;;;;;;;;;;;;;21.65;29.28;98971.44;5074100;28;1180;-73
2023/03/26 13:48:29;;;;;;;;;;;;;;;22.09;29.20;98970.22;5092204;28;815;-74
2023/03/26 13:51:10;;;;;;;;;;;;;;;21.78;29.36;98978.19;5092147;28;859;-74
2023/03/26 13:53:41;;;;;;;;;;;;;;;22.31;29.76;98969.59;5092676;28;808;-74
2023/03/26 13:56:13;;;;;;;;;;;;;;;22.63;28.81;98976.66;5092436;28;875;-73
2023/03/26 13:58:47;;;;;;;;;;;;;;;22.56;28.36;98982.00;5073676;28;1357;-73
2023/03/26 14:01:33;;;;;;;;;;;;;;;22.37;27.98;98988.06;5092056;28;1889;-75
2023/03/26 14:07:00;;;;;;;;;;;;;;;22.75;29.47;98987.97;5049342;28;1281;-73
2023/03/26 14:09:33;;;;;;;;;;;;;;;21.78;28.05;98988.66;5049838;28;1182;-71
2023/03/26 14:12:15;;;;;;;;;;;;;;;21.03;27.99;98998.94;5049336;28;1981;-72